Time;durP1;ratioP1;P1;durP2;ratioP2;P2;SDS_P1;SDS_P2;PMS_P1;PMS_P2;Temp;Humidity;BMP_temperature;BMP_pressure;BME280_temperature;BME280_humidity;BME280_pressure;Samples;Min_cycle;Max_cycle;Signal;HPM_P1;HPM_P2
2022/03/29 00:02:05;;;;;;;27.53;18.07;;;;;;;11.73;74.41;99696.50;5064345;28;20287;-64
2022/03/29 00:04:32;;;;;;;26.73;18.03;;;;;;;11.69;74.24;99705.97;5057633;28;20288;-64
2022/03/29 00:06:59;;;;;;;27.17;16.80;;;;;;;11.66;74.85;99694.97;5056377;28;20200;-64
2022/03/29 00:09:26;;;;;;;30.00;17.50;;;;;;;11.62;74.51;99699.34;5064944;28;20676;-64
2022/03/29 00:11:54;;;;;;;31.37;18.03;;;;;;;11.62;74.54;99698.50;5064317;28;20220;-65
2022/03/29 00:14:21;;;;;;;25.60;17.83;;;;;;;11.59;74.58;99700.28;5070917;28;20231;-64
2022/03/29 00:16:47;;;;;;;28.37;17.53;;;;;;;11.57;75.23;99690.91;5066304;28;20255;-64
2022/03/29 00:19:15;;;;;;;24.53;17.17;;;;;;;11.53;75.42;99695.28;5070553;28;20192;-64
2022/03/29 00:21:42;;;;;;;27.53;19.07;;;;;;;11.51;75.49;99686.81;5066959;28;20243;-64
2022/03/29 00:24:09;;;;;;;27.70;19.03;;;;;;;11.42;76.59;99692.22;5061298;28;20229;-64
2022/03/29 00:26:36;;;;;;;27.83;19.27;;;;;;;11.39;76.79;99688.91;5064913;28;20301;-64
2022/03/29 00:29:04;;;;;;;41.80;21.33;;;;;;;11.29;76.97;99679.78;5071415;28;20717;-64
2022/03/29 00:31:32;;;;;;;33.17;18.30;;;;;;;11.28;77.26;99678.09;5061532;28;20594;-65
2022/03/29 00:33:59;;;;;;;32.73;18.50;;;;;;;11.23;78.13;99675.66;5065998;28;20697;-64
2022/03/29 00:36:27;;;;;;;27.47;19.73;;;;;;;11.24;78.26;99677.34;5064639;28;20299;-64
2022/03/29 00:38:54;;;;;;;35.97;17.73;;;;;;;11.15;78.13;99659.63;5070379;28;20196;-64
2022/03/29 00:41:21;;;;;;;23.40;17.43;;;;;;;11.24;78.06;99676.50;5054547;28;20220;-64
2022/03/29 00:43:48;;;;;;;30.57;17.63;;;;;;;11.23;78.01;99670.53;5058369;28;20207;-64
2022/03/29 00:46:16;;;;;;;23.87;16.57;;;;;;;11.21;77.83;99667.16;5060702;28;20200;-64
2022/03/29 00:48:43;;;;;;;24.57;16.87;;;;;;;11.14;77.69;99660.53;5062120;28;20209;-64
2022/03/29 00:51:11;;;;;;;22.63;15.53;;;;;;;11.18;77.53;99658.72;5069381;28;20212;-64
2022/03/29 00:53:38;;;;;;;27.13;16.63;;;;;;;11.15;77.51;99662.19;5064891;28;20223;-64
2022/03/29 00:56:05;;;;;;;19.67;14.80;;;;;;;11.14;77.75;99665.66;5070547;28;20227;-64
2022/03/29 00:58:34;;;;;;;21.30;15.33;;;;;;;11.10;77.23;99653.81;5058143;28;20723;-64
2022/03/29 01:01:01;;;;;;;18.40;15.10;;;;;;;11.06;77.40;99645.34;5071605;28;20200;-64
2022/03/29 01:03:30;;;;;;;15.07;13.63;;;;;;;11.04;77.58;99639.44;5065603;28;20291;-64
2022/03/29 01:05:57;;;;;;;66.90;25.83;;;;;;;11.02;77.79;99640.34;5060804;28;20222;-64
2022/03/29 01:08:25;;;;;;;65.67;24.70;;;;;;;10.94;77.82;99637.16;5068564;28;20436;-65
2022/03/29 01:10:53;;;;;;;71.30;24.40;;;;;;;10.90;77.55;99636.41;5068329;28;20216;-64
2022/03/29 01:13:20;;;;;;;50.03;23.50;;;;;;;10.81;77.97;99630.69;5067651;28;20204;-64
2022/03/29 01:15:47;;;;;;;57.37;20.97;;;;;;;10.76;78.21;99628.22;5065026;28;20200;-64
2022/03/29 01:18:17;;;;;;;31.47;17.10;;;;;;;10.75;78.16;99635.97;5054004;28;20608;-64
2022/03/29 01:20:49;;;;;;;34.17;16.47;;;;;;;10.69;78.04;99625.91;5070503;28;20208;-64
2022/03/29 01:23:19;;;;;;;29.00;16.23;;;;;;;10.53;78.15;99610.91;5069058;28;20657;-64
2022/03/29 01:25:47;;;;;;;60.77;22.87;;;;;;;10.57;78.30;99621.91;5069649;28;20743;-64
2022/03/29 01:28:16;;;;;;;65.37;23.63;;;;;;;10.47;78.47;99602.53;5070603;28;20204;-64
2022/03/29 01:30:44;;;;;;;50.20;20.40;;;;;;;10.51;78.17;99606.69;5065670;28;20696;-64
2022/03/29 01:33:12;;;;;;;40.60;17.97;;;;;;;10.51;78.15;99601.56;5063542;28;20203;-64
2022/03/29 01:35:40;;;;;;;45.47;19.77;;;;;;;10.50;78.16;99605.84;5056575;28;20204;-64
2022/03/29 01:38:06;;;;;;;43.30;19.40;;;;;;;10.50;78.23;99595.59;5069176;28;20295;-64
2022/03/29 01:40:35;;;;;;;41.90;18.50;;;;;;;10.50;77.78;99595.59;5071059;28;20192;-64
2022/03/29 01:43:03;;;;;;;39.93;19.67;;;;;;;10.48;77.95;99592.25;5070822;28;20200;-64
2022/03/29 01:45:32;;;;;;;34.93;18.57;;;;;;;10.39;77.86;99577.13;5068601;28;20196;-64
2022/03/29 01:47:59;;;;;;;49.47;21.73;;;;;;;10.43;78.15;99583.88;5066535;28;20330;-64
2022/03/29 01:50:26;;;;;;;39.37;19.70;;;;;;;10.43;77.96;99578.75;5052365;28;20209;-64
2022/03/29 01:52:53;;;;;;;43.73;18.80;;;;;;;10.41;78.10;99574.50;5066440;28;20672;-64
2022/03/29 01:55:22;;;;;;;42.63;21.03;;;;;;;10.38;78.38;99575.44;5062711;28;20206;-64
2022/03/29 01:57:51;;;;;;;47.27;21.33;;;;;;;10.36;77.82;99574.66;5069094;28;20307;-64
2022/03/29 02:00:34;;;;;;;42.40;20.23;;;;;;;10.34;78.35;99568.69;5062779;28;20287;-64
2022/03/29 02:03:03;;;;;;;42.20;19.70;;;;;;;10.31;78.46;99566.22;5060624;28;20188;-64
2022/03/29 02:05:32;;;;;;;53.37;23.23;;;;;;;10.29;78.06;99564.59;5067765;28;20208;-64
2022/03/29 02:07:59;;;;;;;46.60;21.57;;;;;;;10.26;78.63;99565.53;5061273;28;20235;-64
2022/03/29 02:10:27;;;;;;;32.97;17.90;;;;;;;10.23;78.39;99555.34;5058996;28;20292;-64
2022/03/29 02:12:55;;;;;;;26.83;16.03;;;;;;;10.22;78.29;99560.50;5054968;28;20215;-64
2022/03/29 02:15:23;;;;;;;29.40;15.57;;;;;;;10.19;78.45;99556.31;5064710;28;20668;-64
2022/03/29 02:17:50;;;;;;;22.37;15.60;;;;;;;10.08;79.25;99553.13;5068515;28;20232;-64
2022/03/29 02:20:18;;;;;;;24.03;16.17;;;;;;;9.98;80.05;99546.59;5060970;28;20254;-64
2022/03/29 02:22:45;;;;;;;25.13;15.50;;;;;;;9.91;80.21;99548.47;5069604;28;20286;-64
2022/03/29 02:25:13;;;;;;;19.43;16.13;;;;;;;9.80;80.48;99521.44;5060745;28;20212;-64
2022/03/29 02:27:41;;;;;;;22.57;15.53;;;;;;;9.90;80.27;99540.81;5059881;28;20200;-64
2022/03/29 02:30:12;;;;;;;20.13;14.13;;;;;;;9.85;80.73;99540.09;5056626;28;20212;-64
2022/03/29 02:32:39;;;;;;;20.17;13.63;;;;;;;9.84;81.23;99546.94;5065728;28;20235;-64
2022/03/29 02:35:07;;;;;;;23.83;14.97;;;;;;;9.83;80.87;99541.84;5069394;28;20660;-64
2022/03/29 02:37:34;;;;;;;26.10;16.10;;;;;;;9.71;81.02;99524.22;5065734;28;20200;-64
2022/03/29 02:40:03;;;;;;;22.90;15.00;;;;;;;9.74;81.01;99527.56;5070647;28;20637;-64
2022/03/29 02:42:30;;;;;;;22.50;13.73;;;;;;;9.72;81.52;99531.03;5059218;28;20193;-64
2022/03/29 02:44:57;;;;;;;17.90;13.70;;;;;;;9.66;82.22;99529.44;5061049;28;20303;-64
2022/03/29 02:47:25;;;;;;;19.70;14.13;;;;;;;9.65;82.29;99529.50;5062480;28;20246;-64
2022/03/29 02:49:52;;;;;;;14.00;12.57;;;;;;;9.50;82.32;99523.88;5054457;28;20670;-65
2022/03/29 02:52:19;;;;;;;16.03;12.73;;;;;;;9.47;82.49;99516.25;5068727;28;20220;-64
2022/03/29 02:54:46;;;;;;;15.60;12.53;;;;;;;9.47;82.39;99523.94;5067036;28;20291;-64
2022/03/29 02:57:13;;;;;;;16.37;14.47;;;;;;;9.44;82.04;99516.34;5066143;28;20214;-64
2022/03/29 02:59:40;;;;;;;15.93;13.13;;;;;;;9.39;82.34;99507.94;5058464;28;20197;-64
2022/03/29 03:02:07;;;;;;;14.77;13.23;;;;;;;9.43;82.37;99524.06;5066365;28;20283;-64
2022/03/29 03:04:35;;;;;;;21.40;14.77;;;;;;;9.41;82.26;99513.84;5062377;28;20288;-64
2022/03/29 03:07:02;;;;;;;17.33;13.37;;;;;;;9.39;81.96;99507.94;5066063;28;20239;-64
2022/03/29 03:09:29;;;;;;;19.73;12.93;;;;;;;9.29;82.14;99503.06;5067765;28;20290;-64
2022/03/29 03:11:56;;;;;;;15.73;13.23;;;;;;;9.34;82.24;99509.75;5067195;28;20212;-64
2022/03/29 03:14:23;;;;;;;19.33;13.63;;;;;;;9.32;82.81;99510.66;5060281;28;20673;-64
2022/03/29 03:16:50;;;;;;;20.43;13.37;;;;;;;9.31;82.45;99509.81;5060738;28;20295;-64
2022/03/29 03:19:18;;;;;;;15.63;13.67;;;;;;;9.32;82.46;99506.41;5054436;28;20197;-64
2022/03/29 03:21:46;;;;;;;15.43;12.67;;;;;;;9.29;82.84;99505.63;5056130;28;20196;-64
2022/03/29 03:24:14;;;;;;;15.73;13.10;;;;;;;9.24;82.94;99502.34;5059652;28;20211;-64
2022/03/29 03:26:41;;;;;;;15.17;13.37;;;;;;;9.24;82.54;99503.16;5059119;28;20196;-64
2022/03/29 03:29:08;;;;;;;23.47;13.83;;;;;;;9.21;82.08;99498.13;5060579;28;20273;-64
2022/03/29 03:31:35;;;;;;;20.73;13.70;;;;;;;9.21;82.66;99502.41;5063355;28;20227;-64
2022/03/29 03:34:02;;;;;;;20.37;14.83;;;;;;;9.08;83.08;99512.06;5066866;28;20204;-64
2022/03/29 03:36:28;;;;;;;27.60;15.80;;;;;;;9.05;83.80;99513.88;5065880;28;20295;-64
2022/03/29 03:38:57;;;;;;;22.10;18.93;;;;;;;8.92;83.74;99506.44;5071210;28;20222;-64
2022/03/29 03:41:24;;;;;;;20.27;17.27;;;;;;;9.00;83.71;99523.34;5066101;28;20594;-64
2022/03/29 03:43:51;;;;;;;20.17;15.90;;;;;;;8.95;83.79;99528.53;5062581;28;20707;-64
2022/03/29 03:46:17;;;;;;;21.20;14.83;;;;;;;8.91;84.07;99529.50;5068113;28;20295;-64
2022/03/29 03:48:44;;;;;;;24.17;14.70;;;;;;;8.87;84.05;99527.88;5062088;28;20291;-64
2022/03/29 03:51:11;;;;;;;15.43;13.90;;;;;;;8.85;83.57;99524.53;5067285;28;20565;-64
2022/03/29 03:53:38;;;;;;;20.70;13.80;;;;;;;8.86;83.72;99528.75;5059954;28;20200;-64
2022/03/29 03:56:07;;;;;;;34.13;16.30;;;;;;;8.85;83.65;99529.63;5065537;28;20667;-64
2022/03/29 03:58:34;;;;;;;32.60;16.57;;;;;;;8.83;83.87;99521.13;5061689;28;20228;-64
2022/03/29 04:01:01;;;;;;;29.00;15.53;;;;;;;8.80;83.48;99518.66;5068162;28;20290;-65
2022/03/29 04:03:28;;;;;;;29.50;15.43;;;;;;;8.79;83.54;99522.06;5061728;28;20764;-65
2022/03/29 04:05:55;;;;;;;29.20;15.63;;;;;;;8.69;84.31;99510.38;5061420;28;20211;-65
2022/03/29 04:08:22;;;;;;;23.20;15.60;;;;;;;8.73;83.90;99515.38;5068217;28;20212;-65
2022/03/29 04:10:49;;;;;;;20.63;14.70;;;;;;;8.71;84.37;99516.28;5064838;28;20634;-65
2022/03/29 04:13:17;;;;;;;31.83;17.30;;;;;;;8.68;84.41;99511.25;5062845;28;20691;-66
2022/03/29 04:15:44;;;;;;;26.83;14.97;;;;;;;8.64;84.87;99520.69;5065966;28;20215;-63
2022/03/29 04:18:11;;;;;;;21.17;14.57;;;;;;;8.63;85.74;99518.16;5066391;28;20668;-64
2022/03/29 04:20:38;;;;;;;23.20;13.97;;;;;;;8.64;85.28;99522.41;5061296;28;20294;-64
2022/03/29 04:23:05;;;;;;;25.55;17.23;;;;;;;8.65;85.61;99524.09;5061554;28;20545;-62
2022/03/29 04:25:32;;;;;;;38.13;20.43;;;;;;;8.69;85.35;99518.03;5065809;28;20215;-63
2022/03/29 04:27:59;;;;;;;25.65;17.67;;;;;;;8.73;86.40;99519.66;5053184;28;20451;-63
2022/03/29 04:30:27;;;;;;;18.10;14.47;;;;;;;8.78;85.50;99520.41;5065464;28;20789;-63
2022/03/29 04:32:55;;;;;;;22.50;14.40;;;;;;;8.80;85.12;99526.31;5062183;28;20215;-64
2022/03/29 04:35:22;;;;;;;20.87;15.90;;;;;;;8.70;84.98;99509.50;5070427;28;20291;-63
2022/03/29 04:37:49;;;;;;;24.60;14.77;;;;;;;8.72;85.08;99517.97;5069996;28;20703;-63
2022/03/29 04:40:15;;;;;;;29.30;15.60;;;;;;;8.51;85.76;99503.06;5060354;28;20207;-63
2022/03/29 04:42:44;;;;;;;20.40;14.43;;;;;;;8.59;87.42;99516.56;5062042;28;20208;-62
2022/03/29 04:45:11;;;;;;;19.83;14.87;;;;;;;8.47;88.32;99511.66;5056550;28;20204;-62
2022/03/29 04:47:40;;;;;;;23.00;15.53;;;;;;;8.43;89.00;99516.84;5053733;28;20549;-62
2022/03/29 04:50:08;;;;;;;47.50;24.33;;;;;;;8.38;89.64;99508.44;5056762;28;20279;-62
2022/03/29 04:52:35;;;;;;;62.97;27.33;;;;;;;8.40;90.40;99516.91;5055611;28;20731;-62
2022/03/29 04:55:02;;;;;;;65.53;29.23;;;;;;;8.43;90.65;99523.69;5060299;28;20196;-63
2022/03/29 04:57:29;;;;;;;54.10;27.77;;;;;;;8.48;90.37;99523.56;5053448;28;20236;-62
2022/03/29 04:59:56;;;;;;;33.73;18.73;;;;;;;8.56;89.82;99521.72;5056317;28;20207;-62
2022/03/29 05:02:23;;;;;;;28.33;16.93;;;;;;;8.56;90.18;99521.72;5052664;28;20238;-63
2022/03/29 05:04:52;;;;;;;22.30;16.63;;;;;;;8.58;89.92;99519.97;5068114;28;20200;-62
2022/03/29 05:07:19;;;;;;;27.63;15.70;;;;;;;8.63;90.29;99520.69;5064294;28;20290;-62
2022/03/29 05:09:46;;;;;;;26.77;16.57;;;;;;;8.70;90.03;99519.72;5058075;28;20225;-62
2022/03/29 05:12:13;;;;;;;25.10;15.60;;;;;;;8.77;89.86;99517.00;5060943;28;20602;-62
2022/03/29 05:14:39;;;;;;;33.90;17.40;;;;;;;8.79;89.73;99509.28;5066268;28;20707;-62
2022/03/29 05:17:06;;;;;;;31.60;18.83;;;;;;;8.89;90.00;99518.44;5072065;28;20204;-62
2022/03/29 05:19:33;;;;;;;44.20;21.27;;;;;;;8.97;90.32;99519.13;5054443;28;20236;-64
2022/03/29 05:22:02;;;;;;;46.20;21.90;;;;;;;9.04;90.09;99510.47;5059830;28;20231;-64
2022/03/29 05:24:29;;;;;;;52.20;19.80;;;;;;;9.06;90.33;99498.47;5065350;28;20195;-62
2022/03/29 05:26:56;;;;;;;31.90;17.57;;;;;;;9.22;90.03;99511.75;5064259;28;20282;-64
2022/03/29 05:29:25;;;;;;;30.83;18.40;;;;;;;9.27;90.64;99508.19;5064142;28;20207;-63
2022/03/29 05:31:52;;;;;;;26.17;17.50;;;;;;;9.41;90.18;99516.41;5064042;28;20199;-63
2022/03/29 05:34:19;;;;;;;35.73;23.03;;;;;;;9.48;90.44;99519.66;5063844;28;20192;-63
2022/03/29 05:36:46;;;;;;;43.17;26.10;;;;;;;9.52;90.65;99518.72;5072300;28;20196;-63
2022/03/29 05:39:15;;;;;;;42.70;25.13;;;;;;;9.63;90.74;99526.16;5055409;28;20200;-63
2022/03/29 05:41:42;;;;;;;41.63;22.83;;;;;;;9.75;91.45;99530.97;5056110;28;20569;-64
2022/03/29 05:44:09;;;;;;;38.43;23.30;;;;;;;9.90;90.88;99531.41;5059899;28;20255;-63
2022/03/29 05:49:20;;;;;;;33.27;21.73;;;;;;;10.10;89.40;99525.78;5071672;28;20607;-63
2022/03/29 05:51:49;;;;;;;38.63;24.07;;;;;;;10.22;88.68;99528.03;5069404;28;20200;-64
2022/03/29 05:54:18;;;;;;;33.17;22.70;;;;;;;10.33;88.88;99531.16;5071482;28;20223;-64
2022/03/29 05:56:45;;;;;;;35.10;21.53;;;;;;;10.44;88.04;99531.69;5060369;28;20200;-64
2022/03/29 05:59:12;;;;;;;33.90;23.53;;;;;;;10.42;87.31;99505.28;5061256;28;20228;-64
2022/03/29 06:01:39;;;;;;;34.07;22.33;;;;;;;10.46;88.09;99527.41;5060627;28;20201;-64
2022/03/29 06:04:07;;;;;;;31.40;21.77;;;;;;;10.60;89.93;99523.59;5066465;28;20716;-64
2022/03/29 06:06:36;;;;;;;36.37;22.07;;;;;;;10.73;87.83;99509.53;5071802;28;20656;-63
2022/03/29 06:09:04;;;;;;;70.27;23.37;;;;;;;11.00;88.00;99524.13;5060779;28;20253;-59
2022/03/29 06:11:32;;;;;;;76.63;26.90;;;;;;;11.18;87.43;99517.59;5064772;28;20735;-59
2022/03/29 06:13:59;;;;;;;40.77;24.47;;;;;;;11.29;87.44;99521.50;5067460;28;20303;-60
2022/03/29 06:16:26;;;;;;;35.20;21.90;;;;;;;11.42;86.16;99517.66;5060319;28;20291;-58
2022/03/29 06:18:53;;;;;;;65.10;23.93;;;;;;;11.51;85.09;99506.25;5060864;28;20292;-58
2022/03/29 06:21:21;;;;;;;59.63;24.07;;;;;;;11.65;84.74;99498.97;5054829;28;20296;-58
2022/03/29 06:23:48;;;;;;;47.40;22.63;;;;;;;11.91;84.21;99514.38;5059324;28;20254;-59
2022/03/29 06:26:15;;;;;;;43.37;21.70;;;;;;;12.04;82.21;99501.94;5060574;28;20195;-59
2022/03/29 06:28:43;;;;;;;35.43;23.43;;;;;;;12.23;80.65;99508.13;5066386;28;20204;-59
2022/03/29 06:31:10;;;;;;;32.07;23.00;;;;;;;12.29;79.27;99489.91;5062482;28;20231;-58
2022/03/29 06:33:37;;;;;;;47.60;22.67;;;;;;;12.51;79.12;99503.66;5054646;28;20303;-59
2022/03/29 06:36:04;;;;;;;42.73;23.90;;;;;;;12.71;76.97;99499.53;5056624;28;20736;-59
2022/03/29 06:38:32;;;;;;;38.03;24.13;;;;;;;12.91;76.32;99492.75;5062688;28;20287;-59
2022/03/29 06:40:59;;;;;;;40.03;24.03;;;;;;;13.10;74.65;99498.03;5065876;28;20199;-59
2022/03/29 06:43:26;;;;;;;36.03;24.23;;;;;;;13.15;74.33;99496.97;5067302;28;20257;-59
2022/03/29 06:45:55;;;;;;;39.80;24.73;;;;;;;13.29;73.49;99499.00;5056096;28;20196;-59
2022/03/29 06:48:23;;;;;;;36.57;24.47;;;;;;;13.50;72.20;99490.44;5062669;28;20203;-59
2022/03/29 06:50:50;;;;;;;33.50;24.37;;;;;;;13.64;73.93;99495.84;5059513;28;20232;-59
2022/03/29 06:53:17;;;;;;;41.60;24.63;;;;;;;13.67;71.60;99479.41;5056962;28;20303;-60
2022/03/29 06:55:44;;;;;;;51.40;24.43;;;;;;;13.93;69.87;99492.06;5067965;28;20200;-59
2022/03/29 06:58:10;;;;;;;36.40;23.67;;;;;;;14.14;69.86;99503.19;5064299;28;20234;-59
2022/03/29 07:00:38;;;;;;;34.90;23.93;;;;;;;14.35;67.84;99493.72;5060077;28;20287;-58
2022/03/29 07:03:07;;;;;;;26.80;21.87;;;;;;;14.54;66.34;99485.09;5064301;28;20214;-59
2022/03/29 07:05:36;;;;;;;34.17;21.97;;;;;;;14.71;65.55;99492.06;5064161;28;20293;-59
2022/03/29 07:08:03;;;;;;;32.70;20.93;;;;;;;14.68;67.05;99482.75;5068133;28;20203;-59
2022/03/29 07:13:14;;;;;;;30.27;20.37;;;;;;;14.89;64.25;99478.34;5056605;28;20266;-59
2022/03/29 07:15:41;;;;;;;35.33;20.17;;;;;;;15.01;64.28;99476.94;5051394;28;20617;-59
2022/03/29 07:18:10;;;;;;;30.00;19.43;;;;;;;15.13;65.40;99471.19;5058896;28;20212;-59
2022/03/29 07:20:37;;;;;;;29.23;19.67;;;;;;;15.29;61.67;99479.88;5059311;28;20259;-64
2022/03/29 07:23:04;;;;;;;28.90;18.47;;;;;;;15.34;60.70;99477.06;5050876;28;20197;-64
2022/03/29 07:25:32;;;;;;;36.87;20.10;;;;;;;15.60;60.88;99480.09;5052860;28;20301;-64
2022/03/29 07:27:59;;;;;;;31.33;19.83;;;;;;;15.69;59.92;99478.81;5050569;28;20198;-64
2022/03/29 07:30:26;;;;;;;28.17;21.70;;;;;;;16.02;59.29;99476.28;5055037;28;20209;-64
2022/03/29 07:32:56;;;;;;;31.43;20.93;;;;;;;16.06;58.45;99467.41;5070471;28;20223;-64
2022/03/29 07:35:27;;;;;;;25.03;19.00;;;;;;;16.30;58.35;99461.00;5065513;28;20200;-65
2022/03/29 07:37:54;;;;;;;27.67;20.30;;;;;;;16.46;58.25;99455.84;5070797;28;20623;-65
2022/03/29 07:40:24;;;;;;;27.27;18.27;;;;;;;16.65;56.43;99457.41;5064508;28;20293;-64
2022/03/29 07:42:51;;;;;;;26.63;17.77;;;;;;;16.97;54.66;99455.63;5051960;28;20204;-64
2022/03/29 07:45:18;;;;;;;20.60;16.13;;;;;;;17.17;56.16;99465.72;5052461;28;20291;-65
2022/03/29 07:47:48;;;;;;;31.83;16.60;;;;;;;17.31;56.69;99462.38;5070473;28;20283;-65
2022/03/29 07:50:16;;;;;;;22.20;16.70;;;;;;;17.40;54.09;99456.66;5068750;28;20265;-64
2022/03/29 07:52:44;;;;;;;22.17;17.43;;;;;;;17.65;53.11;99450.91;5050808;28;20686;-64
2022/03/29 07:55:13;;;;;;;26.40;16.63;;;;;;;17.80;52.88;99461.22;5067750;28;20196;-63
2022/03/29 07:57:40;;;;;;;25.03;17.03;;;;;;;17.91;52.58;99447.63;5065747;28;20315;-63
2022/03/29 08:02:54;;;;;;;26.57;18.33;;;;;;;18.15;51.67;99443.59;5067993;28;20709;-63
2022/03/29 08:05:22;;;;;;;57.80;46.23;;;;;;;18.18;51.69;99438.22;5066865;28;20734;-63
2022/03/29 08:07:50;;;;;;;32.37;24.77;;;;;;;18.03;52.30;99430.53;5070776;28;20583;-63
2022/03/29 08:10:17;;;;;;;22.30;18.13;;;;;;;18.13;51.41;99426.44;5069379;28;20200;-63
2022/03/29 08:12:45;;;;;;;22.37;18.47;;;;;;;18.26;50.76;99422.16;5056220;28;20276;-63
2022/03/29 08:15:13;;;;;;;23.90;17.33;;;;;;;18.63;50.36;99425.97;5056933;28;20291;-63
2022/03/29 08:17:40;;;;;;;19.83;16.33;;;;;;;18.90;49.79;99424.22;5069236;28;20196;-63
2022/03/29 08:20:08;;;;;;;18.10;16.20;;;;;;;19.15;49.30;99423.47;5074133;28;20247;-63
2022/03/29 08:22:36;;;;;;;23.47;15.70;;;;;;;19.07;48.23;99404.94;5054492;28;20313;-63
2022/03/29 08:25:05;;;;;;;18.10;16.27;;;;;;;19.40;48.50;99420.97;5071241;28;20714;-63
2022/03/29 08:27:32;;;;;;;24.83;15.70;;;;;;;19.30;48.46;99407.72;5057440;28;20580;-63
2022/03/29 08:29:59;;;;;;;21.33;14.90;;;;;;;19.45;49.07;99405.88;5074030;28;20287;-63
2022/03/29 08:32:26;;;;;;;18.50;15.83;;;;;;;19.53;50.59;99408.81;5061761;28;20664;-63
2022/03/29 08:34:53;;;;;;;25.90;15.87;;;;;;;19.65;46.63;99402.78;5054186;28;20231;-63
2022/03/29 08:37:20;;;;;;;20.47;14.80;;;;;;;19.70;46.08;99390.34;5070077;28;20200;-63
2022/03/29 08:39:47;;;;;;;18.50;15.47;;;;;;;19.87;46.88;99386.59;5057950;28;20637;-63
2022/03/29 08:42:16;;;;;;;19.17;15.17;;;;;;;19.90;46.40;99381.16;5068874;28;20232;-63
2022/03/29 08:44:44;;;;;;;17.70;13.23;;;;;;;19.97;47.39;99358.16;5070971;28;20196;-63
2022/03/29 08:47:12;;;;;;;15.50;13.00;;;;;;;20.20;46.71;99370.38;5060189;28;20739;-63
2022/03/29 08:49:40;;;;;;;13.90;12.07;;;;;;;20.32;44.99;99364.38;5056449;28;20296;-64
2022/03/29 08:52:07;;;;;;;17.83;12.83;;;;;;;20.10;42.57;99356.34;5073669;28;20193;-63
2022/03/29 08:54:35;;;;;;;13.37;12.17;;;;;;;20.20;43.71;99336.53;5073116;28;20596;-64
2022/03/29 08:57:02;;;;;;;12.93;11.63;;;;;;;20.36;42.42;99347.56;5066465;28;20192;-63
2022/03/29 08:59:30;;;;;;;16.17;12.23;;;;;;;20.38;43.24;99356.13;5069446;28;20235;-63
2022/03/29 09:01:58;;;;;;;16.40;12.57;;;;;;;20.43;43.05;99348.81;5057110;28;20673;-63
2022/03/29 09:04:25;;;;;;;12.70;11.60;;;;;;;20.08;43.64;99342.63;5073588;28;20217;-63
2022/03/29 09:07:02;;;;;;;14.47;12.17;;;;;;;20.26;43.54;99336.09;5064531;28;20196;-63
2022/03/29 09:09:30;;;;;;;11.60;10.60;;;;;;;20.34;42.53;99336.44;5073101;28;20232;-64
2022/03/29 09:11:59;;;;;;;13.30;11.47;;;;;;;20.54;42.88;99335.88;5064937;28;20198;-63
2022/03/29 09:14:29;;;;;;;10.20;9.20;;;;;;;20.78;40.21;99334.06;5060489;28;20752;-64
2022/03/29 09:16:58;;;;;;;10.50;9.50;;;;;;;20.85;38.69;99313.59;5072249;28;20668;-64
2022/03/29 09:19:25;;;;;;;11.10;10.17;;;;;;;20.53;39.76;99318.56;5058219;28;20621;-63
2022/03/29 09:21:55;;;;;;;9.63;8.73;;;;;;;20.67;38.00;99315.81;5052495;28;20212;-64
2022/03/29 09:24:23;;;;;;;10.40;9.40;;;;;;;20.79;38.75;99320.09;5066954;28;20246;-63
2022/03/29 09:26:54;;;;;;;10.97;9.83;;;;;;;20.64;37.40;99303.00;5072418;28;20199;-63
2022/03/29 09:29:22;;;;;;;13.63;9.67;;;;;;;20.92;37.96;99305.22;5066454;28;20558;-63
2022/03/29 09:32:06;;;;;;;9.07;8.23;;;;;;;21.05;36.69;99292.13;5069834;28;20203;-64
2022/03/29 09:34:33;;;;;;;11.70;9.17;;;;;;;21.34;37.26;99292.56;5066275;28;20221;-63
2022/03/29 09:37:01;;;;;;;14.63;9.77;;;;;;;21.27;35.02;99288.75;5060881;28;20681;-64
2022/03/29 09:39:40;;;;;;;10.77;9.77;;;;;;;21.07;35.75;99282.41;5063190;28;20761;-64
2022/03/29 09:42:12;;;;;;;11.80;9.23;;;;;;;20.68;36.28;99283.56;5063930;28;20202;-64
2022/03/29 09:44:41;;;;;;;13.37;10.30;;;;;;;20.85;37.29;99277.97;5072217;28;20209;-63
2022/03/29 09:47:12;;;;;;;26.23;14.73;;;;;;;21.19;36.86;99267.66;5061466;28;20199;-64
2022/03/29 09:49:52;;;;;;;25.43;14.80;;;;;;;21.26;34.57;99266.25;5052645;28;20297;-64
2022/03/29 09:52:21;;;;;;;19.00;14.00;;;;;;;21.18;35.06;99260.78;5064665;28;20209;-63
2022/03/29 09:55:16;;;;;;;20.37;13.47;;;;;;;21.49;35.16;99254.06;5072275;28;20668;-64
2022/03/29 09:57:48;;;;;;;17.73;13.20;;;;;;;21.61;35.52;99255.72;5065249;28;20231;-64
2022/03/29 10:00:17;;;;;;;23.63;14.33;;;;;;;21.74;34.22;99249.44;5063303;28;20216;-64
2022/03/29 10:02:46;;;;;;;16.50;13.70;;;;;;;21.65;34.31;99242.28;5072049;28;20256;-64
2022/03/29 10:05:16;;;;;;;28.20;13.47;;;;;;;21.68;34.76;99239.44;5071791;28;20690;-64
2022/03/29 10:07:45;;;;;;;19.93;14.20;;;;;;;21.79;34.61;99231.63;5064592;28;20207;-64
2022/03/29 10:10:13;;;;;;;26.07;16.83;;;;;;;21.73;34.03;99223.44;5062657;28;20723;-64
2022/03/29 10:12:40;;;;;;;24.13;16.17;;;;;;;21.81;35.33;99216.66;5061814;28;20202;-64
2022/03/29 10:15:09;;;;;;;31.33;16.93;;;;;;;22.03;34.90;99220.22;5060706;28;20222;-63
2022/03/29 10:17:37;;;;;;;26.43;15.43;;;;;;;22.06;33.24;99199.09;5067337;28;20202;-64
2022/03/29 10:20:06;;;;;;;25.40;15.37;;;;;;;22.20;33.83;99212.69;5051654;28;20199;-64
2022/03/29 10:22:37;;;;;;;19.53;14.17;;;;;;;21.96;35.65;99194.63;5051987;28;20601;-64
2022/03/29 10:25:05;;;;;;;23.37;14.30;;;;;;;22.08;34.46;99203.22;5062583;28;20212;-64
2022/03/29 10:27:32;;;;;;;27.07;14.77;;;;;;;22.01;35.38;99199.44;5052228;28;20293;-64
2022/03/29 10:29:59;;;;;;;25.27;13.77;;;;;;;22.03;34.19;99201.94;5051416;28;20289;-64
2022/03/29 10:32:33;;;;;;;22.13;15.17;;;;;;;22.05;34.47;99187.81;5051293;28;20199;-63
2022/03/29 10:35:07;;;;;;;23.67;15.77;;;;;;;22.09;34.17;99188.41;5061356;28;20737;-65
2022/03/29 10:37:53;;;;;;;27.33;16.13;;;;;;;22.09;33.76;99183.19;5059470;28;20195;-64
2022/03/29 10:40:38;;;;;;;24.33;16.13;;;;;;;22.21;33.64;99182.19;5051132;28;20632;-63
2022/03/29 10:43:32;;;;;;;22.03;15.07;;;;;;;22.33;34.81;99174.16;5059556;28;20286;-64
2022/03/29 10:46:00;;;;;;;22.30;14.13;;;;;;;22.54;33.80;99175.97;5013307;28;20200;-64
2022/03/29 10:48:27;;;;;;;22.80;15.13;;;;;;;22.66;32.45;99162.75;5059429;28;20198;-64
2022/03/29 10:51:00;;;;;;;26.37;15.03;;;;;;;22.65;32.59;99145.38;5065251;28;20354;-64
2022/03/29 10:53:29;;;;;;;22.80;14.40;;;;;;;22.78;33.47;99155.69;5059037;28;20294;-64
2022/03/29 10:56:20;;;;;;;19.57;12.53;;;;;;;22.85;33.56;99147.19;5065238;28;20935;-64
2022/03/29 10:59:11;;;;;;;14.67;12.07;;;;;;;22.85;33.66;99147.19;5070728;28;20227;-64
2022/03/29 11:01:39;;;;;;;23.80;13.67;;;;;;;22.93;34.44;99143.94;5044774;28;20204;-64
2022/03/29 11:04:07;;;;;;;28.07;15.47;;;;;;;22.90;32.97;99144.19;5051183;28;20636;-64
2022/03/29 11:06:36;;;;;;;22.13;13.83;;;;;;;22.89;33.28;99137.28;5058313;28;20275;-64
2022/03/29 11:09:05;;;;;;;50.23;15.47;;;;;;;22.65;33.79;99140.16;5056849;28;20286;-63
2022/03/29 11:11:41;;;;;;;23.30;15.13;;;;;;;22.41;33.12;99136.97;5051015;28;20205;-64
2022/03/29 11:14:36;;;;;;;20.53;14.43;;;;;;;22.21;34.16;99127.34;5050751;28;20212;-63
2022/03/29 11:17:36;;;;;;;21.03;14.17;;;;;;;22.41;33.35;99123.91;5057344;28;20208;-64
2022/03/29 11:20:31;;;;;;;28.57;13.50;;;;;;;22.57;33.48;99116.47;5064474;28;20667;-64
2022/03/29 11:23:05;;;;;;;21.10;12.73;;;;;;;22.64;33.07;99111.56;5063764;28;20663;-64
2022/03/29 11:25:38;;;;;;;18.50;13.60;;;;;;;22.66;32.93;99115.72;5070766;28;20667;-64
2022/03/29 11:28:13;;;;;;;17.53;12.60;;;;;;;22.63;32.88;99109.88;5057731;28;20250;-64
2022/03/29 11:30:41;;;;;;;21.73;13.30;;;;;;;22.73;33.95;99106.41;5050581;28;20227;-63
2022/03/29 11:33:09;;;;;;;30.07;14.80;;;;;;;22.72;32.70;99098.69;5050917;28;20226;-63
2022/03/29 11:35:38;;;;;;;21.13;14.27;;;;;;;22.77;34.31;99092.13;5067278;28;20219;-63